Saginaw, MI

11:17 AM EST on January 23, 2017 (GMT -0500)
Saginaw County-Browne

Weather History for KHYX - April, 2013

Change the Weather History Date:

Monday, April 1, 2013

  Actual Average (KMBS) Record (KMBS)
Temperature  
Mean Temperature 30 °F -  
Max Temperature 35 °F 47 °F 69 °F (2007)
Min Temperature 26 °F 30 °F 24 °F (2013)
Degree Days  
Heating Degree Days 34    
Moisture  
Dew Point 17 °F    
Average Humidity 57    
Maximum Humidity 93    
Minimum Humidity 35    
Precipitation  
Precipitation 0.00 in - - ()
Sea Level Pressure  
Sea Level Pressure 29.94 in    
Wind  
Wind Speed 15 mph (WNW)    
Max Wind Speed 23 mph    
Max Gust Speed 31 mph    
Visibility 10 miles    
Events Snow    
Averages and records for this station are not official NWS values.
T = Trace of Precipitation, MM = Missing Value Source: NWS Daily Summary

Daily Weather History Graph

Daily Weather History Graph

Search for Another Location

Airport or City:

Trip Planner

Search our weather history database for the weather conditions in past years. The results will help you decide how hot, cold, wet, or windy it might be!

Date:

Astronomy

Apr. 01, 2013 Rise Set
Actual Time 7:16 AM EDT 8:02 PM EDT
Civil Twilight 6:47 AM EDT 8:31 PM EDT
Nautical Twilight 6:13 AM EDT 9:05 PM EDT
Astronomical Twilight 5:38 AM EDT 9:41 PM EDT
Moon 1:17 AM EDT (4/1) 10:54 AM EDT (4/1)
Length of Visible Light 13h 43m
Length of Day
12h 45m
Waning Gibbous, 67% of the Moon is Illuminated
Apr 1
Waning Gibbous
Apr 3
Last Quarter
Apr 10
New
Apr 18
First Quarter
Apr 25
Full

Hourly Weather History & Observations

Time (EDT) Temp. Windchill Dew Point Humidity Pressure Visibility Wind Dir Wind Speed Gust Speed Precip Events Conditions
12:11 AM 35.6 °F 26.2 °F 32.0 °F 87% 29.70 in 10.0 mi NW 15.0 mph 20.7 mph N/A Snow Light Snow
12:31 AM 33.8 °F 22.5 °F 32.0 °F 93% 29.71 in 4.0 mi NW 19.6 mph 23.0 mph N/A Snow Light Snow
1:11 AM 32.0 °F 21.2 °F 28.4 °F 87% 29.73 in 10.0 mi NNW 16.1 mph 25.3 mph N/A   Overcast
1:31 AM 33.8 °F 24.3 °F 28.4 °F 81% 29.73 in 10.0 mi NW 13.8 mph 18.4 mph N/A   Overcast
1:51 AM 32.0 °F 20.8 °F 26.6 °F 80% 29.74 in 10.0 mi NW 17.3 mph 25.3 mph N/A   Overcast
2:11 AM 32.0 °F 21.6 °F 26.6 °F 80% 29.75 in 10.0 mi NNW 15.0 mph 20.7 mph N/A   Overcast
2:31 AM 32.0 °F 20.5 °F 23.0 °F 69% 29.76 in 10.0 mi NNW 18.4 mph 25.3 mph N/A   Overcast
2:52 AM 32.0 °F 20.8 °F 19.4 °F 60% 29.77 in 10.0 mi NW 17.3 mph 28.8 mph N/A   Overcast
3:12 AM 30.2 °F 19.3 °F 19.4 °F 64% 29.78 in 10.0 mi NW 15.0 mph 23.0 mph N/A   Mostly Cloudy
3:32 AM 30.2 °F 20.2 °F 19.4 °F 64% 29.79 in 10.0 mi NW 12.7 mph 23.0 mph N/A   Clear
3:52 AM 30.2 °F 19.8 °F 17.6 °F 60% 29.80 in 10.0 mi NW 13.8 mph - N/A   Clear
4:12 AM 30.2 °F 21.3 °F 17.6 °F 60% 29.81 in 10.0 mi NW 10.4 mph 16.1 mph N/A   Clear
4:32 AM 30.2 °F 19.8 °F 17.6 °F 60% 29.81 in 10.0 mi WNW 13.8 mph 21.9 mph N/A   Clear
5:12 AM 28.4 °F 18.0 °F 17.6 °F 64% 29.82 in 10.0 mi WNW 12.7 mph - N/A   Clear
5:33 AM 30.2 °F 19.3 °F 17.6 °F 60% 29.83 in 10.0 mi WNW 15.0 mph 26.5 mph N/A   Clear
6:13 AM 28.4 °F 17.0 °F 17.6 °F 64% 29.85 in 10.0 mi WNW 15.0 mph 20.7 mph N/A   Clear
6:33 AM 28.4 °F 15.8 °F 17.6 °F 64% 29.86 in 10.0 mi WNW 18.4 mph 24.2 mph N/A   Clear
6:53 AM 28.4 °F 17.5 °F 17.6 °F 64% 29.87 in 10.0 mi WNW 13.8 mph - N/A   Clear
7:13 AM 28.4 °F 17.5 °F 17.6 °F 64% 29.87 in 10.0 mi WNW 13.8 mph 19.6 mph N/A   Clear
7:33 AM 28.4 °F 17.0 °F 17.6 °F 64% 29.89 in 10.0 mi WNW 15.0 mph 18.4 mph N/A   Clear
7:53 AM 28.4 °F 18.5 °F 15.8 °F 59% 29.89 in 10.0 mi WNW 11.5 mph 25.3 mph N/A   Clear
8:13 AM 30.2 °F 20.2 °F 15.8 °F 55% 29.90 in 10.0 mi WNW 12.7 mph - N/A   Clear
8:34 AM 30.2 °F 18.1 °F 15.8 °F 55% 29.90 in 10.0 mi NW 18.4 mph 26.5 mph N/A   Clear
8:54 AM 30.2 °F 18.1 °F 17.6 °F 60% 29.91 in 10.0 mi West 18.4 mph - N/A   Clear
9:14 AM 32.0 °F 19.8 °F 15.8 °F 51% 29.92 in 10.0 mi NW 20.7 mph 25.3 mph N/A   Clear
9:34 AM 32.0 °F 20.1 °F 15.8 °F 51% 29.92 in 10.0 mi WNW 19.6 mph 26.5 mph N/A   Scattered Clouds
9:54 AM 32.0 °F 20.8 °F 14.0 °F 48% 29.93 in 10.0 mi WNW 17.3 mph 25.3 mph N/A   Scattered Clouds
10:14 AM 32.0 °F 19.8 °F 14.0 °F 48% 29.93 in 10.0 mi NW 20.7 mph 27.6 mph N/A   Scattered Clouds
10:34 AM 32.0 °F 19.2 °F 14.0 °F 48% 29.94 in 10.0 mi NW 23.0 mph 27.6 mph N/A   Scattered Clouds
10:54 AM 32.0 °F 19.5 °F 12.2 °F 44% 29.94 in 10.0 mi WNW 21.9 mph 27.6 mph N/A   Mostly Cloudy
11:14 AM 33.8 °F 22.2 °F 12.2 °F 41% 29.95 in 10.0 mi West 20.7 mph 24.2 mph N/A   Mostly Cloudy
11:34 AM 33.8 °F 23.2 °F 14.0 °F 44% 29.96 in 10.0 mi WNW 17.3 mph 25.3 mph N/A   Mostly Cloudy
11:54 AM 33.8 °F 23.2 °F 14.0 °F 44% 29.96 in 10.0 mi West 17.3 mph 21.9 mph N/A   Mostly Cloudy
12:14 PM 32.0 °F 20.8 °F 14.0 °F 48% 29.97 in 10.0 mi West 17.3 mph - N/A   Overcast
12:35 PM 32.0 °F 20.1 °F 14.0 °F 48% 29.98 in 10.0 mi West 19.6 mph 31.1 mph N/A   Overcast
12:55 PM 32.0 °F 20.5 °F 12.2 °F 44% 29.98 in 10.0 mi WNW 18.4 mph 25.3 mph N/A   Overcast
1:15 PM 33.8 °F 23.5 °F 14.0 °F 44% 29.98 in 10.0 mi WNW 16.1 mph 23.0 mph N/A   Overcast
1:35 PM 33.8 °F 24.3 °F 12.2 °F 41% 29.98 in 10.0 mi West 13.8 mph 25.3 mph N/A   Overcast
2:15 PM 33.8 °F 23.9 °F 12.2 °F 41% 29.98 in 10.0 mi West 15.0 mph - N/A   Mostly Cloudy
2:35 PM 33.8 °F 23.5 °F 14.0 °F 44% 29.99 in 10.0 mi West 16.1 mph 26.5 mph N/A   Overcast
3:15 PM 32.0 °F 21.2 °F 12.2 °F 44% 29.99 in 10.0 mi WNW 16.1 mph - N/A   Mostly Cloudy
3:35 PM 33.8 °F 22.2 °F 12.2 °F 41% 29.99 in 10.0 mi WNW 20.7 mph 26.5 mph N/A   Overcast
3:55 PM 35.6 °F 25.5 °F 10.4 °F 35% 30.00 in 10.0 mi WNW 17.3 mph 27.6 mph N/A   Overcast
4:16 PM 32.0 °F 20.5 °F 10.4 °F 41% 30.00 in 10.0 mi WNW 18.4 mph 31.1 mph N/A   Mostly Cloudy
4:31 PM 32.0 °F 20.8 °F 12.2 °F 44% 30.01 in 10.0 mi WNW 17.3 mph 25.3 mph N/A   Mostly Cloudy
4:51 PM 33.8 °F 22.2 °F 12.2 °F 41% 30.01 in 10.0 mi WNW 20.7 mph 26.5 mph N/A   Mostly Cloudy
5:11 PM 32.0 °F 20.5 °F 12.2 °F 44% 30.01 in 10.0 mi WNW 18.4 mph 25.3 mph N/A   Overcast
5:31 PM 32.0 °F 21.6 °F 12.2 °F 44% 30.01 in 10.0 mi WNW 15.0 mph 25.3 mph N/A   Mostly Cloudy
6:11 PM 32.0 °F 21.2 °F 12.2 °F 44% 30.02 in 10.0 mi WNW 16.1 mph 23.0 mph N/A   Scattered Clouds
6:31 PM 32.0 °F 23.0 °F 12.2 °F 44% 30.03 in 10.0 mi WNW 11.5 mph 16.1 mph N/A   Scattered Clouds
6:51 PM 32.0 °F 22.1 °F 12.2 °F 44% 30.04 in 10.0 mi WNW 13.8 mph 21.9 mph N/A   Mostly Cloudy
7:11 PM 32.0 °F 23.0 °F 14.0 °F 48% 30.04 in 10.0 mi West 11.5 mph 18.4 mph N/A   Mostly Cloudy
7:31 PM 32.0 °F 22.1 °F 14.0 °F 48% 30.04 in 10.0 mi WNW 13.8 mph 21.9 mph N/A   Mostly Cloudy
7:51 PM 32.0 °F 21.6 °F 14.0 °F 48% 30.04 in 10.0 mi West 15.0 mph - N/A   Mostly Cloudy
8:11 PM 32.0 °F 22.5 °F 14.0 °F 48% 30.04 in 10.0 mi WNW 12.7 mph 18.4 mph N/A   Overcast
8:31 PM 30.2 °F 19.8 °F 19.4 °F 64% 30.05 in 10.0 mi West 13.8 mph 23.0 mph N/A   Overcast
8:52 PM 30.2 °F 21.3 °F 17.6 °F 60% 30.06 in 10.0 mi WNW 10.4 mph 16.1 mph N/A   Scattered Clouds
9:12 PM 30.2 °F 22.6 °F 17.6 °F 60% 30.06 in 10.0 mi West 8.1 mph - N/A   Scattered Clouds
9:32 PM 30.2 °F 21.3 °F 17.6 °F 60% 30.06 in 10.0 mi West 10.4 mph - N/A   Scattered Clouds
9:52 PM 28.4 °F 21.2 °F 19.4 °F 69% 30.07 in 10.0 mi WNW 6.9 mph - N/A   Clear
10:12 PM 26.6 °F 20.0 °F 19.4 °F 74% 30.07 in 10.0 mi West 5.8 mph - N/A   Clear
10:32 PM 26.6 °F 21.2 °F 19.4 °F 74% 30.07 in 10.0 mi WSW 4.6 mph - N/A   Clear
10:52 PM 28.4 °F 23.3 °F 19.4 °F 69% 30.07 in 10.0 mi WSW 4.6 mph - N/A   Scattered Clouds
11:12 PM 28.4 °F 22.2 °F 19.4 °F 69% 30.07 in 10.0 mi WSW 5.8 mph - N/A   Mostly Cloudy
11:33 PM 28.4 °F 22.2 °F 19.4 °F 69% 30.07 in 10.0 mi WSW 5.8 mph - N/A   Overcast
11:53 PM 30.2 °F 21.9 °F 17.6 °F 60% 30.06 in 10.0 mi WSW 9.2 mph - N/A   Overcast